sensor_id;sensor_type;location;lat;lon;timestamp;temperature;humidity
1568;DHT22;777;47.156;8.326;2023-06-10T00:01:52;20.20;99.90
1568;DHT22;777;47.156;8.326;2023-06-10T00:04:21;20.30;99.90
1568;DHT22;777;47.156;8.326;2023-06-10T00:06:48;20.40;99.90
1568;DHT22;777;47.156;8.326;2023-06-10T00:09:15;20.40;99.90
1568;DHT22;777;47.156;8.326;2023-06-10T00:11:45;20.50;99.90
1568;DHT22;777;47.156;8.326;2023-06-10T00:14:12;20.50;99.90
1568;DHT22;777;47.156;8.326;2023-06-10T00:16:39;20.50;99.90
1568;DHT22;777;47.156;8.326;2023-06-10T00:19:06;20.30;99.90
1568;DHT22;777;47.156;8.326;2023-06-10T00:21:34;20.20;99.90
1568;DHT22;777;47.156;8.326;2023-06-10T00:24:03;20.10;99.90
1568;DHT22;777;47.156;8.326;2023-06-10T00:26:31;20.00;99.90
1568;DHT22;777;47.156;8.326;2023-06-10T00:29:00;20.00;99.90
1568;DHT22;777;47.156;8.326;2023-06-10T00:31:27;20.10;99.90
1568;DHT22;777;47.156;8.326;2023-06-10T00:33:54;20.00;99.90
1568;DHT22;777;47.156;8.326;2023-06-10T00:36:21;20.10;99.90
1568;DHT22;777;47.156;8.326;2023-06-10T00:38:48;20.00;99.90
1568;DHT22;777;47.156;8.326;2023-06-10T00:41:15;19.90;99.90
1568;DHT22;777;47.156;8.326;2023-06-10T00:43:43;19.90;99.90
1568;DHT22;777;47.156;8.326;2023-06-10T00:46:13;19.80;99.90
1568;DHT22;777;47.156;8.326;2023-06-10T00:48:42;19.80;99.90
1568;DHT22;777;47.156;8.326;2023-06-10T00:51:10;19.80;99.90
1568;DHT22;777;47.156;8.326;2023-06-10T00:53:40;19.80;99.90
1568;DHT22;777;47.156;8.326;2023-06-10T00:56:08;19.80;99.90
1568;DHT22;777;47.156;8.326;2023-06-10T00:58:35;19.80;99.90
1568;DHT22;777;47.156;8.326;2023-06-10T01:01:02;19.70;99.90
1568;DHT22;777;47.156;8.326;2023-06-10T01:03:32;19.70;99.90
1568;DHT22;777;47.156;8.326;2023-06-10T01:06:09;19.80;99.90
1568;DHT22;777;47.156;8.326;2023-06-10T01:08:49;19.70;99.90
1568;DHT22;777;47.156;8.326;2023-06-10T01:11:23;19.70;99.90
1568;DHT22;777;47.156;8.326;2023-06-10T01:13:54;19.80;99.90
1568;DHT22;777;47.156;8.326;2023-06-10T01:16:23;19.80;99.90
1568;DHT22;777;47.156;8.326;2023-06-10T01:18:52;19.80;99.90
1568;DHT22;777;47.156;8.326;2023-06-10T01:21:22;19.80;99.90
1568;DHT22;777;47.156;8.326;2023-06-10T01:23:51;19.80;99.90
1568;DHT22;777;47.156;8.326;2023-06-10T01:26:22;19.80;99.90
1568;DHT22;777;47.156;8.326;2023-06-10T01:28:54;19.80;99.90
1568;DHT22;777;47.156;8.326;2023-06-10T01:31:31;19.80;99.90
1568;DHT22;777;47.156;8.326;2023-06-10T01:34:00;19.80;99.90
1568;DHT22;777;47.156;8.326;2023-06-10T01:36:30;19.80;99.90
1568;DHT22;777;47.156;8.326;2023-06-10T01:39:00;19.90;99.90
1568;DHT22;777;47.156;8.326;2023-06-10T01:41:28;19.80;99.90
1568;DHT22;777;47.156;8.326;2023-06-10T01:43:56;19.80;99.90
1568;DHT22;777;47.156;8.326;2023-06-10T01:46:23;19.80;99.90
1568;DHT22;777;47.156;8.326;2023-06-10T01:48:50;19.80;99.90
1568;DHT22;777;47.156;8.326;2023-06-10T01:51:17;19.70;99.90
1568;DHT22;777;47.156;8.326;2023-06-10T01:53:45;19.70;99.90
1568;DHT22;777;47.156;8.326;2023-06-10T01:56:13;19.60;99.90
1568;DHT22;777;47.156;8.326;2023-06-10T01:58:42;19.60;99.90
1568;DHT22;777;47.156;8.326;2023-06-10T02:01:09;19.60;99.90
1568;DHT22;777;47.156;8.326;2023-06-10T02:03:37;19.50;99.90
1568;DHT22;777;47.156;8.326;2023-06-10T02:06:04;19.60;99.90
1568;DHT22;777;47.156;8.326;2023-06-10T02:08:31;19.60;99.90
1568;DHT22;777;47.156;8.326;2023-06-10T02:11:02;19.80;99.90
1568;DHT22;777;47.156;8.326;2023-06-10T02:13:29;19.50;99.90
1568;DHT22;777;47.156;8.326;2023-06-10T02:15:56;19.40;99.90
1568;DHT22;777;47.156;8.326;2023-06-10T02:18:27;19.30;99.90
1568;DHT22;777;47.156;8.326;2023-06-10T02:20:54;19.10;99.90
1568;DHT22;777;47.156;8.326;2023-06-10T02:23:22;18.80;99.90
1568;DHT22;777;47.156;8.326;2023-06-10T02:25:49;18.80;99.90
1568;DHT22;777;47.156;8.326;2023-06-10T02:28:17;19.00;99.90
1568;DHT22;777;47.156;8.326;2023-06-10T02:30:44;19.00;99.90
1568;DHT22;777;47.156;8.326;2023-06-10T02:33:12;19.10;99.90
1568;DHT22;777;47.156;8.326;2023-06-10T02:35:40;19.10;99.90
1568;DHT22;777;47.156;8.326;2023-06-10T02:38:07;19.10;99.90
1568;DHT22;777;47.156;8.326;2023-06-10T02:40:35;19.20;99.90
1568;DHT22;777;47.156;8.326;2023-06-10T02:43:02;19.20;99.90
1568;DHT22;777;47.156;8.326;2023-06-10T02:45:30;19.20;99.90
1568;DHT22;777;47.156;8.326;2023-06-10T02:47:59;19.20;99.90
1568;DHT22;777;47.156;8.326;2023-06-10T02:50:26;19.20;99.90
1568;DHT22;777;47.156;8.326;2023-06-10T02:53:25;19.30;99.90
1568;DHT22;777;47.156;8.326;2023-06-10T02:55:59;19.20;99.90
1568;DHT22;777;47.156;8.326;2023-06-10T02:58:27;19.20;99.90
1568;DHT22;777;47.156;8.326;2023-06-10T03:00:56;19.20;99.90
1568;DHT22;777;47.156;8.326;2023-06-10T03:03:24;19.20;99.90
1568;DHT22;777;47.156;8.326;2023-06-10T03:06:03;19.20;99.90
1568;DHT22;777;47.156;8.326;2023-06-10T03:08:31;19.20;99.90
1568;DHT22;777;47.156;8.326;2023-06-10T03:11:02;19.20;99.90
1568;DHT22;777;47.156;8.326;2023-06-10T03:13:30;19.20;99.90
1568;DHT22;777;47.156;8.326;2023-06-10T03:15:59;19.10;99.90
1568;DHT22;777;47.156;8.326;2023-06-10T03:18:27;19.10;99.90
1568;DHT22;777;47.156;8.326;2023-06-10T03:20:55;19.10;99.90
1568;DHT22;777;47.156;8.326;2023-06-10T03:23:25;19.00;99.90
1568;DHT22;777;47.156;8.326;2023-06-10T03:25:53;19.00;99.90
1568;DHT22;777;47.156;8.326;2023-06-10T03:28:21;19.00;99.90
1568;DHT22;777;47.156;8.326;2023-06-10T03:30:48;19.00;99.90
1568;DHT22;777;47.156;8.326;2023-06-10T03:33:17;18.90;99.90
1568;DHT22;777;47.156;8.326;2023-06-10T03:35:45;18.90;99.90
1568;DHT22;777;47.156;8.326;2023-06-10T03:38:13;18.90;99.90
1568;DHT22;777;47.156;8.326;2023-06-10T03:40:40;18.90;99.90
1568;DHT22;777;47.156;8.326;2023-06-10T03:43:07;19.00;99.90
1568;DHT22;777;47.156;8.326;2023-06-10T03:45:35;18.80;99.90
1568;DHT22;777;47.156;8.326;2023-06-10T03:48:02;18.80;99.90
1568;DHT22;777;47.156;8.326;2023-06-10T03:50:40;18.90;99.90
1568;DHT22;777;47.156;8.326;2023-06-10T03:53:07;18.70;99.90
1568;DHT22;777;47.156;8.326;2023-06-10T03:55:35;18.70;99.90
1568;DHT22;777;47.156;8.326;2023-06-10T03:58:03;18.90;99.90
1568;DHT22;777;47.156;8.326;2023-06-10T04:00:30;18.90;99.90
1568;DHT22;777;47.156;8.326;2023-06-10T04:03:06;19.10;99.90
1568;DHT22;777;47.156;8.326;2023-06-10T04:05:40;19.40;99.90
1568;DHT22;777;47.156;8.326;2023-06-10T04:08:08;19.80;99.90
1568;DHT22;777;47.156;8.326;2023-06-10T04:10:35;20.10;99.90
1568;DHT22;777;47.156;8.326;2023-06-10T04:13:02;20.70;99.90
1568;DHT22;777;47.156;8.326;2023-06-10T04:15:34;21.10;99.90
1568;DHT22;777;47.156;8.326;2023-06-10T04:18:06;21.40;99.90
1568;DHT22;777;47.156;8.326;2023-06-10T04:20:34;21.70;99.90
1568;DHT22;777;47.156;8.326;2023-06-10T04:23:03;21.70;99.90
1568;DHT22;777;47.156;8.326;2023-06-10T04:25:30;22.10;99.90
1568;DHT22;777;47.156;8.326;2023-06-10T04:27:58;22.50;99.90
1568;DHT22;777;47.156;8.326;2023-06-10T04:30:25;22.60;99.90
1568;DHT22;777;47.156;8.326;2023-06-10T04:32:52;22.80;99.90
1568;DHT22;777;47.156;8.326;2023-06-10T04:35:20;22.80;99.90
1568;DHT22;777;47.156;8.326;2023-06-10T04:37:48;22.90;99.90
1568;DHT22;777;47.156;8.326;2023-06-10T04:40:17;22.80;99.90
1568;DHT22;777;47.156;8.326;2023-06-10T04:42:46;22.30;99.90
1568;DHT22;777;47.156;8.326;2023-06-10T04:45:13;22.10;99.90
1568;DHT22;777;47.156;8.326;2023-06-10T04:47:40;21.70;99.90
1568;DHT22;777;47.156;8.326;2023-06-10T04:50:08;21.50;99.90
1568;DHT22;777;47.156;8.326;2023-06-10T04:52:35;21.40;99.90
1568;DHT22;777;47.156;8.326;2023-06-10T04:55:02;21.40;99.90
1568;DHT22;777;47.156;8.326;2023-06-10T04:57:31;21.20;99.90
1568;DHT22;777;47.156;8.326;2023-06-10T04:59:58;21.20;99.90
1568;DHT22;777;47.156;8.326;2023-06-10T05:02:25;21.20;99.90
1568;DHT22;777;47.156;8.326;2023-06-10T05:04:52;21.40;99.90
1568;DHT22;777;47.156;8.326;2023-06-10T05:07:20;21.40;99.90
1568;DHT22;777;47.156;8.326;2023-06-10T05:09:47;21.50;99.90
1568;DHT22;777;47.156;8.326;2023-06-10T05:12:14;21.60;99.90
1568;DHT22;777;47.156;8.326;2023-06-10T05:14:43;21.60;99.90
1568;DHT22;777;47.156;8.326;2023-06-10T05:17:10;21.70;99.90
1568;DHT22;777;47.156;8.326;2023-06-10T05:19:38;22.00;99.90
1568;DHT22;777;47.156;8.326;2023-06-10T05:22:05;22.30;99.90
1568;DHT22;777;47.156;8.326;2023-06-10T05:24:32;22.70;99.90
1568;DHT22;777;47.156;8.326;2023-06-10T05:27:00;22.90;99.90
1568;DHT22;777;47.156;8.326;2023-06-10T05:29:27;23.50;99.90
1568;DHT22;777;47.156;8.326;2023-06-10T05:31:55;23.80;99.90
1568;DHT22;777;47.156;8.326;2023-06-10T05:34:23;24.00;99.90
1568;DHT22;777;47.156;8.326;2023-06-10T05:36:50;24.50;99.90
1568;DHT22;777;47.156;8.326;2023-06-10T05:39:17;25.20;99.90
1568;DHT22;777;47.156;8.326;2023-06-10T05:41:46;26.30;99.90
1568;DHT22;777;47.156;8.326;2023-06-10T05:44:13;26.90;99.90
1568;DHT22;777;47.156;8.326;2023-06-10T05:46:40;27.50;99.90
1568;DHT22;777;47.156;8.326;2023-06-10T05:49:09;27.70;99.90
1568;DHT22;777;47.156;8.326;2023-06-10T05:51:36;28.10;99.90
1568;DHT22;777;47.156;8.326;2023-06-10T05:54:04;28.30;99.90
1568;DHT22;777;47.156;8.326;2023-06-10T05:56:31;28.10;99.90
1568;DHT22;777;47.156;8.326;2023-06-10T05:58:58;27.90;99.90
1568;DHT22;777;47.156;8.326;2023-06-10T06:01:25;27.80;99.90
1568;DHT22;777;47.156;8.326;2023-06-10T06:03:52;27.50;99.90
1568;DHT22;777;47.156;8.326;2023-06-10T06:06:20;27.30;99.90
1568;DHT22;777;47.156;8.326;2023-06-10T06:08:47;27.20;99.90
1568;DHT22;777;47.156;8.326;2023-06-10T06:11:14;27.10;99.90
1568;DHT22;777;47.156;8.326;2023-06-10T06:13:41;27.00;99.90
1568;DHT22;777;47.156;8.326;2023-06-10T06:16:08;27.30;99.90
1568;DHT22;777;47.156;8.326;2023-06-10T06:18:35;27.60;99.90
1568;DHT22;777;47.156;8.326;2023-06-10T06:21:02;27.40;99.90
1568;DHT22;777;47.156;8.326;2023-06-10T06:23:31;27.00;99.90
1568;DHT22;777;47.156;8.326;2023-06-10T06:25:58;26.50;99.90
1568;DHT22;777;47.156;8.326;2023-06-10T06:28:25;26.20;99.90
1568;DHT22;777;47.156;8.326;2023-06-10T06:30:55;26.20;99.90
1568;DHT22;777;47.156;8.326;2023-06-10T06:33:22;26.20;99.90
1568;DHT22;777;47.156;8.326;2023-06-10T06:35:49;26.20;99.90
1568;DHT22;777;47.156;8.326;2023-06-10T06:38:16;26.30;99.90
1568;DHT22;777;47.156;8.326;2023-06-10T06:40:44;26.30;99.90
1568;DHT22;777;47.156;8.326;2023-06-10T06:43:11;26.50;99.90
1568;DHT22;777;47.156;8.326;2023-06-10T06:45:54;26.50;99.90
1568;DHT22;777;47.156;8.326;2023-06-10T06:48:21;26.90;99.90
1568;DHT22;777;47.156;8.326;2023-06-10T06:50:48;27.00;99.90
1568;DHT22;777;47.156;8.326;2023-06-10T06:53:15;26.60;99.90
1568;DHT22;777;47.156;8.326;2023-06-10T06:55:44;26.30;99.90
1568;DHT22;777;47.156;8.326;2023-06-10T06:58:11;26.20;99.90
1568;DHT22;777;47.156;8.326;2023-06-10T07:00:38;26.10;99.90
1568;DHT22;777;47.156;8.326;2023-06-10T07:03:05;25.90;99.90
1568;DHT22;777;47.156;8.326;2023-06-10T07:05:32;25.60;99.90
1568;DHT22;777;47.156;8.326;2023-06-10T07:07:59;25.60;99.90
1568;DHT22;777;47.156;8.326;2023-06-10T07:10:26;25.60;99.90
1568;DHT22;777;47.156;8.326;2023-06-10T07:12:55;25.50;99.90
1568;DHT22;777;47.156;8.326;2023-06-10T07:15:22;25.40;99.90
1568;DHT22;777;47.156;8.326;2023-06-10T07:17:49;25.50;99.90
1568;DHT22;777;47.156;8.326;2023-06-10T07:20:16;25.80;99.90
1568;DHT22;777;47.156;8.326;2023-06-10T07:22:43;25.70;99.90
1568;DHT22;777;47.156;8.326;2023-06-10T07:25:10;25.50;99.90
1568;DHT22;777;47.156;8.326;2023-06-10T07:27:37;25.30;99.90
1568;DHT22;777;47.156;8.326;2023-06-10T07:30:07;25.10;99.90
1568;DHT22;777;47.156;8.326;2023-06-10T07:32:34;25.30;99.90
1568;DHT22;777;47.156;8.326;2023-06-10T07:35:01;25.40;99.90
1568;DHT22;777;47.156;8.326;2023-06-10T07:37:28;25.30;99.90
1568;DHT22;777;47.156;8.326;2023-06-10T07:39:56;25.40;99.90
1568;DHT22;777;47.156;8.326;2023-06-10T07:42:23;25.90;99.90
1568;DHT22;777;47.156;8.326;2023-06-10T07:44:50;25.60;99.90
1568;DHT22;777;47.156;8.326;2023-06-10T07:47:19;25.40;99.90
1568;DHT22;777;47.156;8.326;2023-06-10T07:49:45;25.70;99.90
1568;DHT22;777;47.156;8.326;2023-06-10T07:52:12;25.50;99.90
1568;DHT22;777;47.156;8.326;2023-06-10T07:54:39;25.60;99.90
1568;DHT22;777;47.156;8.326;2023-06-10T07:57:07;25.90;99.90
1568;DHT22;777;47.156;8.326;2023-06-10T07:59:34;26.10;99.90
1568;DHT22;777;47.156;8.326;2023-06-10T08:02:00;26.50;99.90
1568;DHT22;777;47.156;8.326;2023-06-10T08:04:29;26.50;99.90
1568;DHT22;777;47.156;8.326;2023-06-10T08:06:56;26.70;99.90
1568;DHT22;777;47.156;8.326;2023-06-10T08:09:23;26.70;99.90
1568;DHT22;777;47.156;8.326;2023-06-10T08:11:51;26.60;99.90
1568;DHT22;777;47.156;8.326;2023-06-10T08:14:18;26.40;99.90
1568;DHT22;777;47.156;8.326;2023-06-10T08:16:45;26.30;99.90
1568;DHT22;777;47.156;8.326;2023-06-10T08:19:12;25.80;99.90
1568;DHT22;777;47.156;8.326;2023-06-10T08:21:40;25.50;99.90
1568;DHT22;777;47.156;8.326;2023-06-10T08:24:07;25.00;99.90
1568;DHT22;777;47.156;8.326;2023-06-10T08:26:34;25.30;99.90
1568;DHT22;777;47.156;8.326;2023-06-10T08:29:01;25.80;99.90
1568;DHT22;777;47.156;8.326;2023-06-10T08:31:28;26.30;99.90
1568;DHT22;777;47.156;8.326;2023-06-10T08:33:55;26.60;99.90
1568;DHT22;777;47.156;8.326;2023-06-10T08:36:22;26.40;99.90
1568;DHT22;777;47.156;8.326;2023-06-10T08:38:50;26.90;99.90
1568;DHT22;777;47.156;8.326;2023-06-10T08:41:18;26.90;99.90
1568;DHT22;777;47.156;8.326;2023-06-10T08:43:51;26.90;99.90
1568;DHT22;777;47.156;8.326;2023-06-10T08:46:20;26.70;99.90
1568;DHT22;777;47.156;8.326;2023-06-10T08:48:49;26.50;99.90
1568;DHT22;777;47.156;8.326;2023-06-10T08:51:21;26.20;99.90
1568;DHT22;777;47.156;8.326;2023-06-10T08:53:57;26.40;99.90
1568;DHT22;777;47.156;8.326;2023-06-10T08:56:26;26.60;99.90
1568;DHT22;777;47.156;8.326;2023-06-10T08:58:55;26.60;99.90
1568;DHT22;777;47.156;8.326;2023-06-10T09:01:23;26.50;99.90
1568;DHT22;777;47.156;8.326;2023-06-10T09:03:51;26.00;99.90
1568;DHT22;777;47.156;8.326;2023-06-10T09:06:18;25.10;99.90
1568;DHT22;777;47.156;8.326;2023-06-10T09:08:45;25.00;99.90
1568;DHT22;777;47.156;8.326;2023-06-10T09:11:14;25.10;99.90
1568;DHT22;777;47.156;8.326;2023-06-10T09:13:41;25.30;99.90
1568;DHT22;777;47.156;8.326;2023-06-10T09:16:08;25.30;99.90
1568;DHT22;777;47.156;8.326;2023-06-10T09:18:37;25.30;99.90
1568;DHT22;777;47.156;8.326;2023-06-10T09:21:04;25.30;99.90
1568;DHT22;777;47.156;8.326;2023-06-10T09:23:31;25.30;99.90
1568;DHT22;777;47.156;8.326;2023-06-10T09:25:59;25.60;99.90
1568;DHT22;777;47.156;8.326;2023-06-10T09:28:27;25.90;99.90
1568;DHT22;777;47.156;8.326;2023-06-10T09:31:04;24.80;99.90
1568;DHT22;777;47.156;8.326;2023-06-10T09:33:33;24.10;99.90
1568;DHT22;777;47.156;8.326;2023-06-10T09:36:03;24.40;99.90
1568;DHT22;777;47.156;8.326;2023-06-10T09:38:31;24.80;99.90
1568;DHT22;777;47.156;8.326;2023-06-10T09:40:58;25.40;99.90
1568;DHT22;777;47.156;8.326;2023-06-10T09:43:40;26.30;99.90
1568;DHT22;777;47.156;8.326;2023-06-10T09:46:13;26.90;99.90
1568;DHT22;777;47.156;8.326;2023-06-10T09:48:41;27.40;99.90
1568;DHT22;777;47.156;8.326;2023-06-10T09:51:09;27.80;99.90
1568;DHT22;777;47.156;8.326;2023-06-10T09:53:37;27.70;99.90
1568;DHT22;777;47.156;8.326;2023-06-10T09:56:04;27.70;99.90
1568;DHT22;777;47.156;8.326;2023-06-10T09:58:37;28.00;99.90
1568;DHT22;777;47.156;8.326;2023-06-10T10:01:10;28.30;99.90
1568;DHT22;777;47.156;8.326;2023-06-10T10:03:44;28.70;99.90
1568;DHT22;777;47.156;8.326;2023-06-10T10:06:12;28.80;99.90
1568;DHT22;777;47.156;8.326;2023-06-10T10:08:39;29.00;99.90
1568;DHT22;777;47.156;8.326;2023-06-10T10:11:06;28.70;99.90
1568;DHT22;777;47.156;8.326;2023-06-10T10:13:35;28.50;99.90
1568;DHT22;777;47.156;8.326;2023-06-10T10:16:06;28.60;99.90
1568;DHT22;777;47.156;8.326;2023-06-10T10:18:35;28.60;99.90
1568;DHT22;777;47.156;8.326;2023-06-10T10:21:06;28.50;99.90
1568;DHT22;777;47.156;8.326;2023-06-10T10:23:39;28.20;99.90
1568;DHT22;777;47.156;8.326;2023-06-10T10:26:09;27.80;99.90
1568;DHT22;777;47.156;8.326;2023-06-10T10:28:45;27.50;99.90
1568;DHT22;777;47.156;8.326;2023-06-10T10:31:16;27.20;99.90
1568;DHT22;777;47.156;8.326;2023-06-10T10:33:51;27.20;99.90
1568;DHT22;777;47.156;8.326;2023-06-10T10:36:22;27.30;99.90
1568;DHT22;777;47.156;8.326;2023-06-10T10:38:49;27.20;99.90
1568;DHT22;777;47.156;8.326;2023-06-10T10:41:16;27.70;99.90
1568;DHT22;777;47.156;8.326;2023-06-10T10:43:46;28.30;99.90
1568;DHT22;777;47.156;8.326;2023-06-10T10:46:15;28.70;99.90
1568;DHT22;777;47.156;8.326;2023-06-10T10:48:43;29.20;99.90
1568;DHT22;777;47.156;8.326;2023-06-10T10:51:10;29.20;99.90
1568;DHT22;777;47.156;8.326;2023-06-10T10:53:37;29.60;99.90
1568;DHT22;777;47.156;8.326;2023-06-10T10:56:06;29.70;99.90
1568;DHT22;777;47.156;8.326;2023-06-10T10:58:33;29.50;99.90
1568;DHT22;777;47.156;8.326;2023-06-10T11:01:10;29.10;99.90
1568;DHT22;777;47.156;8.326;2023-06-10T11:03:43;28.60;99.90
1568;DHT22;777;47.156;8.326;2023-06-10T11:06:13;28.10;99.90
1568;DHT22;777;47.156;8.326;2023-06-10T11:08:49;27.40;99.90
1568;DHT22;777;47.156;8.326;2023-06-10T11:11:21;27.80;99.90
1568;DHT22;777;47.156;8.326;2023-06-10T11:14:08;26.30;99.90
1568;DHT22;777;47.156;8.326;2023-06-10T11:16:43;27.50;99.90
1568;DHT22;777;47.156;8.326;2023-06-10T11:19:10;28.40;99.90
1568;DHT22;777;47.156;8.326;2023-06-10T11:22:00;28.20;99.90
1568;DHT22;777;47.156;8.326;2023-06-10T11:24:29;28.40;99.90
1568;DHT22;777;47.156;8.326;2023-06-10T11:27:14;27.60;99.90
1568;DHT22;777;47.156;8.326;2023-06-10T11:29:55;28.20;99.90
1568;DHT22;777;47.156;8.326;2023-06-10T11:32:25;26.80;99.90
1568;DHT22;777;47.156;8.326;2023-06-10T11:34:56;26.70;99.90
1568;DHT22;777;47.156;8.326;2023-06-10T11:37:23;26.70;99.90
1568;DHT22;777;47.156;8.326;2023-06-10T11:39:52;25.60;99.90
1568;DHT22;777;47.156;8.326;2023-06-10T11:42:19;25.90;99.90
1568;DHT22;777;47.156;8.326;2023-06-10T11:44:49;26.90;99.90
1568;DHT22;777;47.156;8.326;2023-06-10T11:47:17;26.80;99.90
1568;DHT22;777;47.156;8.326;2023-06-10T11:49:45;26.70;99.90
1568;DHT22;777;47.156;8.326;2023-06-10T11:52:13;26.80;99.90
1568;DHT22;777;47.156;8.326;2023-06-10T11:54:40;26.50;99.90
1568;DHT22;777;47.156;8.326;2023-06-10T11:57:08;26.90;99.90
1568;DHT22;777;47.156;8.326;2023-06-10T11:59:35;26.30;99.90
1568;DHT22;777;47.156;8.326;2023-06-10T12:02:02;27.20;99.90
1568;DHT22;777;47.156;8.326;2023-06-10T12:04:29;27.90;99.90
1568;DHT22;777;47.156;8.326;2023-06-10T12:06:58;27.50;99.90
1568;DHT22;777;47.156;8.326;2023-06-10T12:09:26;27.80;99.90
1568;DHT22;777;47.156;8.326;2023-06-10T12:11:55;28.60;99.90
1568;DHT22;777;47.156;8.326;2023-06-10T12:14:52;29.70;99.90
1568;DHT22;777;47.156;8.326;2023-06-10T12:17:21;28.20;99.90
1568;DHT22;777;47.156;8.326;2023-06-10T12:19:48;28.50;99.90
1568;DHT22;777;47.156;8.326;2023-06-10T12:22:17;29.90;99.90
1568;DHT22;777;47.156;8.326;2023-06-10T12:24:45;30.80;99.90
1568;DHT22;777;47.156;8.326;2023-06-10T12:27:12;32.30;99.90
1568;DHT22;777;47.156;8.326;2023-06-10T12:29:39;33.60;99.90
1568;DHT22;777;47.156;8.326;2023-06-10T12:32:17;32.80;98.00
1568;DHT22;777;47.156;8.326;2023-06-10T12:34:45;33.70;98.70
1568;DHT22;777;47.156;8.326;2023-06-10T12:37:13;31.40;97.60
1568;DHT22;777;47.156;8.326;2023-06-10T12:42:21;28.60;99.90
1568;DHT22;777;47.156;8.326;2023-06-10T12:44:53;30.80;99.90
1568;DHT22;777;47.156;8.326;2023-06-10T12:47:29;32.00;97.50
1568;DHT22;777;47.156;8.326;2023-06-10T12:49:58;30.50;97.40
1568;DHT22;777;47.156;8.326;2023-06-10T12:52:25;31.00;98.00
1568;DHT22;777;47.156;8.326;2023-06-10T12:54:54;31.90;97.90
1568;DHT22;777;47.156;8.326;2023-06-10T12:57:21;31.30;95.50
1568;DHT22;777;47.156;8.326;2023-06-10T12:59:48;30.80;98.20
1568;DHT22;777;47.156;8.326;2023-06-10T13:02:18;30.00;95.30
1568;DHT22;777;47.156;8.326;2023-06-10T13:04:46;30.60;97.00
1568;DHT22;777;47.156;8.326;2023-06-10T13:07:13;30.40;97.70
1568;DHT22;777;47.156;8.326;2023-06-10T13:09:40;31.00;95.70
1568;DHT22;777;47.156;8.326;2023-06-10T13:12:09;33.30;94.80
1568;DHT22;777;47.156;8.326;2023-06-10T13:14:36;35.10;93.70
1568;DHT22;777;47.156;8.326;2023-06-10T13:17:04;35.40;91.70
1568;DHT22;777;47.156;8.326;2023-06-10T13:19:32;35.40;91.50
1568;DHT22;777;47.156;8.326;2023-06-10T13:21:59;36.40;90.70
1568;DHT22;777;47.156;8.326;2023-06-10T13:24:26;37.10;88.40
1568;DHT22;777;47.156;8.326;2023-06-10T13:26:53;37.40;85.60
1568;DHT22;777;47.156;8.326;2023-06-10T13:29:23;38.40;82.90
1568;DHT22;777;47.156;8.326;2023-06-10T13:31:50;35.20;83.60
1568;DHT22;777;47.156;8.326;2023-06-10T13:34:17;33.60;86.50
1568;DHT22;777;47.156;8.326;2023-06-10T13:36:44;31.80;90.30
1568;DHT22;777;47.156;8.326;2023-06-10T13:39:11;31.60;91.10
1568;DHT22;777;47.156;8.326;2023-06-10T13:41:40;32.80;90.80
1568;DHT22;777;47.156;8.326;2023-06-10T13:44:07;31.70;91.10
1568;DHT22;777;47.156;8.326;2023-06-10T13:46:35;28.30;93.90
1568;DHT22;777;47.156;8.326;2023-06-10T13:49:02;27.60;96.90
1568;DHT22;777;47.156;8.326;2023-06-10T13:51:29;26.70;97.70
1568;DHT22;777;47.156;8.326;2023-06-10T13:53:56;26.70;98.50
1568;DHT22;777;47.156;8.326;2023-06-10T13:56:23;26.50;99.00
1568;DHT22;777;47.156;8.326;2023-06-10T13:58:50;27.20;98.20
1568;DHT22;777;47.156;8.326;2023-06-10T14:01:17;30.20;96.00
1568;DHT22;777;47.156;8.326;2023-06-10T14:03:46;33.00;92.30
1568;DHT22;777;47.156;8.326;2023-06-10T14:06:13;31.00;91.00
1568;DHT22;777;47.156;8.326;2023-06-10T14:08:44;29.90;89.40
1568;DHT22;777;47.156;8.326;2023-06-10T14:11:11;30.60;90.30
1568;DHT22;777;47.156;8.326;2023-06-10T14:13:37;30.30;91.20
1568;DHT22;777;47.156;8.326;2023-06-10T14:16:05;32.80;91.70
1568;DHT22;777;47.156;8.326;2023-06-10T14:18:32;34.40;89.10
1568;DHT22;777;47.156;8.326;2023-06-10T14:21:00;36.20;86.00
1568;DHT22;777;47.156;8.326;2023-06-10T14:23:27;37.20;83.60
1568;DHT22;777;47.156;8.326;2023-06-10T14:25:54;35.70;81.70
1568;DHT22;777;47.156;8.326;2023-06-10T14:28:21;32.20;86.80
1568;DHT22;777;47.156;8.326;2023-06-10T14:30:49;31.80;88.80
1568;DHT22;777;47.156;8.326;2023-06-10T14:33:16;33.00;88.00
1568;DHT22;777;47.156;8.326;2023-06-10T14:35:43;31.10;87.40
1568;DHT22;777;47.156;8.326;2023-06-10T14:38:12;31.10;87.90
1568;DHT22;777;47.156;8.326;2023-06-10T14:40:39;31.80;88.10
1568;DHT22;777;47.156;8.326;2023-06-10T14:43:06;30.50;88.90
1568;DHT22;777;47.156;8.326;2023-06-10T14:45:35;30.50;89.30
1568;DHT22;777;47.156;8.326;2023-06-10T14:48:02;30.50;89.80
1568;DHT22;777;47.156;8.326;2023-06-10T14:50:29;30.30;87.10
1568;DHT22;777;47.156;8.326;2023-06-10T14:52:57;29.70;86.00
1568;DHT22;777;47.156;8.326;2023-06-10T14:55:26;31.90;87.20
1568;DHT22;777;47.156;8.326;2023-06-10T14:57:53;29.30;87.00
1568;DHT22;777;47.156;8.326;2023-06-10T15:00:21;27.80;90.00
1568;DHT22;777;47.156;8.326;2023-06-10T15:02:49;27.40;92.30
1568;DHT22;777;47.156;8.326;2023-06-10T15:05:17;27.40;92.50
1568;DHT22;777;47.156;8.326;2023-06-10T15:07:45;27.60;92.50
1568;DHT22;777;47.156;8.326;2023-06-10T15:10:12;30.60;91.40
1568;DHT22;777;47.156;8.326;2023-06-10T15:12:40;33.10;88.90
1568;DHT22;777;47.156;8.326;2023-06-10T15:15:08;32.20;83.10
1568;DHT22;777;47.156;8.326;2023-06-10T15:17:35;31.40;83.50
1568;DHT22;777;47.156;8.326;2023-06-10T15:20:02;30.90;82.60
1568;DHT22;777;47.156;8.326;2023-06-10T15:22:29;30.30;84.70
1568;DHT22;777;47.156;8.326;2023-06-10T15:24:56;30.40;86.60
1568;DHT22;777;47.156;8.326;2023-06-10T15:27:24;30.90;85.30
1568;DHT22;777;47.156;8.326;2023-06-10T15:29:52;30.50;83.70
1568;DHT22;777;47.156;8.326;2023-06-10T15:32:19;30.00;83.40
1568;DHT22;777;47.156;8.326;2023-06-10T15:34:46;31.80;85.10
1568;DHT22;777;47.156;8.326;2023-06-10T15:37:14;33.60;82.30
1568;DHT22;777;47.156;8.326;2023-06-10T15:39:41;35.10;80.20
1568;DHT22;777;47.156;8.326;2023-06-10T15:42:08;36.00;78.90
1568;DHT22;777;47.156;8.326;2023-06-10T15:44:35;36.30;76.70
1568;DHT22;777;47.156;8.326;2023-06-10T15:47:04;37.20;75.80
1568;DHT22;777;47.156;8.326;2023-06-10T15:49:31;36.00;72.20
1568;DHT22;777;47.156;8.326;2023-06-10T15:51:58;34.90;75.40
1568;DHT22;777;47.156;8.326;2023-06-10T15:54:25;31.70;79.10
1568;DHT22;777;47.156;8.326;2023-06-10T15:56:52;31.50;80.40
1568;DHT22;777;47.156;8.326;2023-06-10T15:59:19;33.40;80.20
1568;DHT22;777;47.156;8.326;2023-06-10T16:01:46;34.90;77.90
1568;DHT22;777;47.156;8.326;2023-06-10T16:04:16;33.60;76.80
1568;DHT22;777;47.156;8.326;2023-06-10T16:06:46;33.20;79.30
1568;DHT22;777;47.156;8.326;2023-06-10T16:09:16;32.50;81.40
1568;DHT22;777;47.156;8.326;2023-06-10T16:11:44;33.40;81.50
1568;DHT22;777;47.156;8.326;2023-06-10T16:14:11;31.60;83.00
1568;DHT22;777;47.156;8.326;2023-06-10T16:16:39;32.80;82.90
1568;DHT22;777;47.156;8.326;2023-06-10T16:19:06;33.10;81.20
1568;DHT22;777;47.156;8.326;2023-06-10T16:21:34;33.90;80.30
1568;DHT22;777;47.156;8.326;2023-06-10T16:24:02;34.50;79.10
1568;DHT22;777;47.156;8.326;2023-06-10T16:26:29;33.40;77.80
1568;DHT22;777;47.156;8.326;2023-06-10T16:28:56;31.40;77.10